Gainesville, FL

1:47 PM EDT on April 26, 2015 (GMT -0400)
KC4MHH | | Change Station
CLOSE
Current Station
Personal Weather Station
Location: Gainesville, FL
Elevation: 168 ft
Nearby Weather Stations

Elev 168 ft 29.66 °N, 82.33 °W | Updated 5 seconds ago

Mostly Cloudy
Mostly Cloudy
82.1 °F
Feels Like 87 °F
N
0.6
Wind Variable Wind from WNW
Gusts 12.7 mph

Today
High -- | Low -- °F
--% Chance of Precip.
Yesterday
High -- | Low -- °F
Precip. -- in
6:51 AM 8:03 PM
First Quarter, 57% visible
Pressure 29.77 in
Visibility 10.0 miles
Clouds Scattered Clouds 1000 ft
Mostly Cloudy 3000 ft
Heat Index 87 °F
Dew Point 72 °F
Humidity 71%
Rainfall 0.13 in
Snow Depth Not available.
UV 8 out of 12
Pollen 6.00 out of 12
Air Quality Not available.
Flu Activity Local Activity
METAR KGNV 261653Z 25010KT 220V280 10SM SCT010 BKN030 27/23 A2978 RMK AO2 LTG DSNT SE SLP080 T02670228 $

More Conditions Fewer Conditions

Pressure 29.77 in
Visibility 10.0 miles
Clouds Scattered Clouds 1000 ft
Mostly Cloudy 3000 ft
Heat Index 87 °F
Dew Point 72 °F
Humidity 71%
Rainfall 0.13 in
Snow Depth Not available.
UV 8 out of 12
Pollen 6.00 out of 12
Air Quality Not available.
Flu Activity Local Activity
METAR KGNV 261653Z 25010KT 220V280 10SM SCT010 BKN030 27/23 A2978 RMK AO2 LTG DSNT SE SLP080 T02670228 $

More Conditions Fewer Conditions

The full scope of the disaster following a powerful 7.8-magnitude earthquake in Nepal may not come into view for days, but global charities are already sending emergency aid. Click to see how you can help.

10-Day Weather Forecast

Almanac

Astronomy

Apr. 26, 2015 Rise Set
Actual Time
Civil Twilight
Nautical Twilight
Astronomical Twilight
Moon
Length of Visible Light
Length of Day
Tomorrow will be .
, % of the Moon is Illuminated

Today's Extremes

State Highs State Lows

Community

WunderPhotos

Upload Photos

1,817,066 photos uploaded!

WunderBlogs® & News

Nearby

Air Quality

  Air Quality AQ Index Pollutant
Not available.

Snow Depth

Station Depth Elevation

Earthquake Activity

City Distance Mag. Time & Date
Minimum magnitude displayed is 2.5.

Coastal Water Temperatures

Place Temperature

Stations

Nearby Weather Stations

Station Location Temp. Windchill Dew Point Humidity Wind Precip. Elev Updated Type